sensor_id;sensor_type;location;lat;lon;timestamp;P1;durP1;ratioP1;P2;durP2;ratioP2
13660;SDS011;6903;49.480;11.102;2022-12-11T00:02:03;34.97;;;19.50;;
13660;SDS011;6903;49.480;11.102;2022-12-11T00:04:29;35.70;;;19.87;;
13660;SDS011;6903;49.480;11.102;2022-12-11T00:06:55;35.93;;;20.50;;
13660;SDS011;6903;49.480;11.102;2022-12-11T00:09:20;31.80;;;17.27;;
13660;SDS011;6903;49.480;11.102;2022-12-11T00:11:46;35.77;;;18.97;;
13660;SDS011;6903;49.480;11.102;2022-12-11T00:14:12;34.40;;;19.13;;
13660;SDS011;6903;49.480;11.102;2022-12-11T00:16:38;35.17;;;19.47;;
13660;SDS011;6903;49.480;11.102;2022-12-11T00:19:04;32.27;;;17.97;;
13660;SDS011;6903;49.480;11.102;2022-12-11T00:21:30;28.13;;;17.00;;
13660;SDS011;6903;49.480;11.102;2022-12-11T00:23:55;31.77;;;18.07;;
13660;SDS011;6903;49.480;11.102;2022-12-11T00:26:21;28.37;;;16.53;;
13660;SDS011;6903;49.480;11.102;2022-12-11T00:28:46;29.83;;;17.13;;
13660;SDS011;6903;49.480;11.102;2022-12-11T00:31:14;29.33;;;16.83;;
13660;SDS011;6903;49.480;11.102;2022-12-11T00:33:42;29.23;;;15.87;;
13660;SDS011;6903;49.480;11.102;2022-12-11T00:36:12;30.63;;;17.80;;
13660;SDS011;6903;49.480;11.102;2022-12-11T00:38:40;29.60;;;17.40;;
13660;SDS011;6903;49.480;11.102;2022-12-11T00:41:05;31.33;;;18.07;;
13660;SDS011;6903;49.480;11.102;2022-12-11T00:43:31;28.47;;;17.77;;
13660;SDS011;6903;49.480;11.102;2022-12-11T00:45:56;30.40;;;15.97;;
13660;SDS011;6903;49.480;11.102;2022-12-11T00:48:21;26.07;;;15.50;;
13660;SDS011;6903;49.480;11.102;2022-12-11T00:50:47;28.40;;;17.23;;
13660;SDS011;6903;49.480;11.102;2022-12-11T00:53:12;26.30;;;16.63;;
13660;SDS011;6903;49.480;11.102;2022-12-11T00:55:39;26.03;;;15.73;;
13660;SDS011;6903;49.480;11.102;2022-12-11T00:58:05;29.23;;;17.20;;
13660;SDS011;6903;49.480;11.102;2022-12-11T01:00:31;28.60;;;16.10;;
13660;SDS011;6903;49.480;11.102;2022-12-11T01:02:57;29.70;;;16.70;;
13660;SDS011;6903;49.480;11.102;2022-12-11T01:05:22;29.53;;;17.60;;
13660;SDS011;6903;49.480;11.102;2022-12-11T01:07:49;30.77;;;16.43;;
13660;SDS011;6903;49.480;11.102;2022-12-11T01:10:14;25.27;;;15.47;;
13660;SDS011;6903;49.480;11.102;2022-12-11T01:12:59;27.87;;;16.40;;
13660;SDS011;6903;49.480;11.102;2022-12-11T01:15:27;27.83;;;16.50;;
13660;SDS011;6903;49.480;11.102;2022-12-11T01:17:55;28.40;;;16.97;;
13660;SDS011;6903;49.480;11.102;2022-12-11T01:20:21;29.17;;;17.40;;
13660;SDS011;6903;49.480;11.102;2022-12-11T01:22:47;26.20;;;15.77;;
13660;SDS011;6903;49.480;11.102;2022-12-11T01:25:16;26.93;;;16.60;;
13660;SDS011;6903;49.480;11.102;2022-12-11T01:27:42;30.73;;;18.27;;
13660;SDS011;6903;49.480;11.102;2022-12-11T01:30:07;32.33;;;17.80;;
13660;SDS011;6903;49.480;11.102;2022-12-11T01:32:34;27.47;;;15.00;;
13660;SDS011;6903;49.480;11.102;2022-12-11T01:35:01;31.03;;;17.33;;
13660;SDS011;6903;49.480;11.102;2022-12-11T01:37:28;27.07;;;16.07;;
13660;SDS011;6903;49.480;11.102;2022-12-11T01:39:54;29.30;;;17.20;;
13660;SDS011;6903;49.480;11.102;2022-12-11T01:42:19;30.57;;;18.23;;
13660;SDS011;6903;49.480;11.102;2022-12-11T01:47:10;32.33;;;17.97;;
13660;SDS011;6903;49.480;11.102;2022-12-11T01:49:36;26.33;;;16.37;;
13660;SDS011;6903;49.480;11.102;2022-12-11T01:52:12;29.87;;;17.30;;
13660;SDS011;6903;49.480;11.102;2022-12-11T01:54:42;30.80;;;17.27;;
13660;SDS011;6903;49.480;11.102;2022-12-11T01:57:08;33.03;;;18.50;;
13660;SDS011;6903;49.480;11.102;2022-12-11T01:59:36;31.03;;;18.27;;
13660;SDS011;6903;49.480;11.102;2022-12-11T02:02:07;32.40;;;18.97;;
13660;SDS011;6903;49.480;11.102;2022-12-11T02:04:38;31.50;;;17.60;;
13660;SDS011;6903;49.480;11.102;2022-12-11T02:07:05;28.40;;;15.57;;
13660;SDS011;6903;49.480;11.102;2022-12-11T02:09:31;29.93;;;18.57;;
13660;SDS011;6903;49.480;11.102;2022-12-11T02:14:55;31.83;;;18.93;;
13660;SDS011;6903;49.480;11.102;2022-12-11T02:20:22;30.40;;;17.07;;
13660;SDS011;6903;49.480;11.102;2022-12-11T02:28:11;32.17;;;16.83;;
13660;SDS011;6903;49.480;11.102;2022-12-11T02:30:44;30.47;;;16.67;;
13660;SDS011;6903;49.480;11.102;2022-12-11T02:33:14;31.70;;;17.57;;
13660;SDS011;6903;49.480;11.102;2022-12-11T02:35:41;30.13;;;18.27;;
13660;SDS011;6903;49.480;11.102;2022-12-11T02:38:09;30.30;;;17.90;;
13660;SDS011;6903;49.480;11.102;2022-12-11T02:40:39;31.53;;;18.57;;
13660;SDS011;6903;49.480;11.102;2022-12-11T02:43:07;31.67;;;19.13;;
13660;SDS011;6903;49.480;11.102;2022-12-11T02:45:35;31.53;;;18.57;;
13660;SDS011;6903;49.480;11.102;2022-12-11T02:48:03;31.17;;;18.73;;
13660;SDS011;6903;49.480;11.102;2022-12-11T02:50:31;28.90;;;16.93;;
13660;SDS011;6903;49.480;11.102;2022-12-11T02:53:00;30.83;;;17.13;;
13660;SDS011;6903;49.480;11.102;2022-12-11T02:55:28;30.93;;;17.67;;
13660;SDS011;6903;49.480;11.102;2022-12-11T02:58:01;31.40;;;18.70;;
13660;SDS011;6903;49.480;11.102;2022-12-11T03:00:30;29.13;;;17.20;;
13660;SDS011;6903;49.480;11.102;2022-12-11T03:02:56;24.77;;;14.47;;
13660;SDS011;6903;49.480;11.102;2022-12-11T03:05:22;32.77;;;19.10;;
13660;SDS011;6903;49.480;11.102;2022-12-11T03:07:48;27.40;;;15.37;;
13660;SDS011;6903;49.480;11.102;2022-12-11T03:10:14;31.03;;;18.43;;
13660;SDS011;6903;49.480;11.102;2022-12-11T03:12:43;33.00;;;19.33;;
13660;SDS011;6903;49.480;11.102;2022-12-11T03:15:16;33.97;;;19.33;;
13660;SDS011;6903;49.480;11.102;2022-12-11T03:17:52;33.47;;;19.57;;
13660;SDS011;6903;49.480;11.102;2022-12-11T03:20:27;33.53;;;18.87;;
13660;SDS011;6903;49.480;11.102;2022-12-11T03:28:41;31.40;;;17.83;;
13660;SDS011;6903;49.480;11.102;2022-12-11T03:31:22;30.53;;;18.33;;
13660;SDS011;6903;49.480;11.102;2022-12-11T03:33:55;32.10;;;17.30;;
13660;SDS011;6903;49.480;11.102;2022-12-11T03:36:29;31.50;;;18.60;;
13660;SDS011;6903;49.480;11.102;2022-12-11T03:39:01;32.20;;;18.93;;
13660;SDS011;6903;49.480;11.102;2022-12-11T03:41:31;31.07;;;18.47;;
13660;SDS011;6903;49.480;11.102;2022-12-11T03:43:59;29.67;;;17.53;;
13660;SDS011;6903;49.480;11.102;2022-12-11T03:46:29;32.47;;;19.20;;
13660;SDS011;6903;49.480;11.102;2022-12-11T03:49:00;34.47;;;18.77;;
13660;SDS011;6903;49.480;11.102;2022-12-11T03:51:31;31.27;;;18.37;;
13660;SDS011;6903;49.480;11.102;2022-12-11T03:53:58;30.23;;;17.93;;
13660;SDS011;6903;49.480;11.102;2022-12-11T03:56:24;30.87;;;18.37;;
13660;SDS011;6903;49.480;11.102;2022-12-11T03:58:52;28.17;;;17.80;;
13660;SDS011;6903;49.480;11.102;2022-12-11T04:01:18;29.13;;;18.10;;
13660;SDS011;6903;49.480;11.102;2022-12-11T04:03:43;29.20;;;17.40;;
13660;SDS011;6903;49.480;11.102;2022-12-11T04:06:09;31.00;;;18.20;;
13660;SDS011;6903;49.480;11.102;2022-12-11T04:08:34;32.97;;;18.57;;
13660;SDS011;6903;49.480;11.102;2022-12-11T04:11:01;29.03;;;17.43;;
13660;SDS011;6903;49.480;11.102;2022-12-11T04:13:46;32.43;;;19.17;;
13660;SDS011;6903;49.480;11.102;2022-12-11T04:16:31;30.73;;;19.70;;
13660;SDS011;6903;49.480;11.102;2022-12-11T04:18:56;28.63;;;18.07;;
13660;SDS011;6903;49.480;11.102;2022-12-11T04:21:40;25.17;;;15.27;;
13660;SDS011;6903;49.480;11.102;2022-12-11T04:24:24;30.20;;;18.03;;
13660;SDS011;6903;49.480;11.102;2022-12-11T04:26:49;32.87;;;18.60;;
13660;SDS011;6903;49.480;11.102;2022-12-11T04:29:15;31.37;;;17.87;;
13660;SDS011;6903;49.480;11.102;2022-12-11T04:31:40;29.07;;;18.07;;
13660;SDS011;6903;49.480;11.102;2022-12-11T04:34:05;32.20;;;19.17;;
13660;SDS011;6903;49.480;11.102;2022-12-11T04:36:31;28.50;;;18.53;;
13660;SDS011;6903;49.480;11.102;2022-12-11T04:38:56;21.80;;;14.33;;
13660;SDS011;6903;49.480;11.102;2022-12-11T04:41:21;31.20;;;18.93;;
13660;SDS011;6903;49.480;11.102;2022-12-11T04:43:46;30.53;;;17.80;;
13660;SDS011;6903;49.480;11.102;2022-12-11T04:46:14;30.93;;;18.83;;
13660;SDS011;6903;49.480;11.102;2022-12-11T04:48:41;29.03;;;18.20;;
13660;SDS011;6903;49.480;11.102;2022-12-11T04:51:07;30.83;;;18.67;;
13660;SDS011;6903;49.480;11.102;2022-12-11T04:53:33;29.77;;;18.90;;
13660;SDS011;6903;49.480;11.102;2022-12-11T04:55:59;27.90;;;17.83;;
13660;SDS011;6903;49.480;11.102;2022-12-11T04:58:25;30.97;;;19.67;;
13660;SDS011;6903;49.480;11.102;2022-12-11T05:00:51;31.57;;;19.53;;
13660;SDS011;6903;49.480;11.102;2022-12-11T05:03:17;30.50;;;19.53;;
13660;SDS011;6903;49.480;11.102;2022-12-11T05:05:50;30.57;;;19.40;;
13660;SDS011;6903;49.480;11.102;2022-12-11T05:08:19;31.33;;;18.40;;
13660;SDS011;6903;49.480;11.102;2022-12-11T05:10:55;32.73;;;18.53;;
13660;SDS011;6903;49.480;11.102;2022-12-11T05:13:21;32.83;;;19.30;;
13660;SDS011;6903;49.480;11.102;2022-12-11T05:15:46;28.47;;;18.80;;
13660;SDS011;6903;49.480;11.102;2022-12-11T05:18:12;31.17;;;18.43;;
13660;SDS011;6903;49.480;11.102;2022-12-11T05:20:37;32.20;;;18.37;;
13660;SDS011;6903;49.480;11.102;2022-12-11T05:23:02;29.47;;;17.63;;
13660;SDS011;6903;49.480;11.102;2022-12-11T05:25:28;34.03;;;19.20;;
13660;SDS011;6903;49.480;11.102;2022-12-11T05:27:53;31.27;;;18.73;;
13660;SDS011;6903;49.480;11.102;2022-12-11T05:30:18;28.57;;;17.97;;
13660;SDS011;6903;49.480;11.102;2022-12-11T05:32:43;27.67;;;16.73;;
13660;SDS011;6903;49.480;11.102;2022-12-11T05:35:09;28.53;;;17.47;;
13660;SDS011;6903;49.480;11.102;2022-12-11T05:37:34;29.27;;;17.37;;
13660;SDS011;6903;49.480;11.102;2022-12-11T05:39:59;30.17;;;17.47;;
13660;SDS011;6903;49.480;11.102;2022-12-11T05:42:25;30.83;;;17.90;;
13660;SDS011;6903;49.480;11.102;2022-12-11T05:44:50;30.10;;;17.93;;
13660;SDS011;6903;49.480;11.102;2022-12-11T05:47:15;31.63;;;18.37;;
13660;SDS011;6903;49.480;11.102;2022-12-11T05:49:44;25.43;;;16.23;;
13660;SDS011;6903;49.480;11.102;2022-12-11T05:52:09;27.73;;;16.63;;
13660;SDS011;6903;49.480;11.102;2022-12-11T05:54:34;28.63;;;17.63;;
13660;SDS011;6903;49.480;11.102;2022-12-11T05:57:00;28.60;;;17.27;;
13660;SDS011;6903;49.480;11.102;2022-12-11T05:59:25;28.07;;;15.53;;
13660;SDS011;6903;49.480;11.102;2022-12-11T06:01:50;30.63;;;18.63;;
13660;SDS011;6903;49.480;11.102;2022-12-11T06:04:16;30.83;;;18.80;;
13660;SDS011;6903;49.480;11.102;2022-12-11T06:06:41;35.33;;;20.13;;
13660;SDS011;6903;49.480;11.102;2022-12-11T06:09:10;35.07;;;20.00;;
13660;SDS011;6903;49.480;11.102;2022-12-11T06:11:37;35.43;;;19.83;;
13660;SDS011;6903;49.480;11.102;2022-12-11T06:14:03;29.50;;;16.93;;
13660;SDS011;6903;49.480;11.102;2022-12-11T06:16:28;34.43;;;19.37;;
13660;SDS011;6903;49.480;11.102;2022-12-11T06:18:54;33.27;;;19.07;;
13660;SDS011;6903;49.480;11.102;2022-12-11T06:21:20;33.73;;;19.27;;
13660;SDS011;6903;49.480;11.102;2022-12-11T06:23:49;39.57;;;20.57;;
13660;SDS011;6903;49.480;11.102;2022-12-11T06:26:17;28.23;;;16.73;;
13660;SDS011;6903;49.480;11.102;2022-12-11T06:28:43;33.30;;;18.43;;
13660;SDS011;6903;49.480;11.102;2022-12-11T06:31:08;34.50;;;19.17;;
13660;SDS011;6903;49.480;11.102;2022-12-11T06:33:34;33.00;;;19.07;;
13660;SDS011;6903;49.480;11.102;2022-12-11T06:36:00;34.17;;;18.87;;
13660;SDS011;6903;49.480;11.102;2022-12-11T06:38:26;36.27;;;20.30;;
13660;SDS011;6903;49.480;11.102;2022-12-11T06:40:55;35.57;;;19.60;;
13660;SDS011;6903;49.480;11.102;2022-12-11T06:43:22;28.17;;;17.13;;
13660;SDS011;6903;49.480;11.102;2022-12-11T06:45:47;25.77;;;14.93;;
13660;SDS011;6903;49.480;11.102;2022-12-11T06:48:13;37.07;;;20.17;;
13660;SDS011;6903;49.480;11.102;2022-12-11T06:50:38;31.57;;;17.77;;
13660;SDS011;6903;49.480;11.102;2022-12-11T06:53:03;36.07;;;20.10;;
13660;SDS011;6903;49.480;11.102;2022-12-11T06:55:29;27.43;;;15.80;;
13660;SDS011;6903;49.480;11.102;2022-12-11T06:57:54;33.13;;;18.80;;
13660;SDS011;6903;49.480;11.102;2022-12-11T07:00:19;36.07;;;19.90;;
13660;SDS011;6903;49.480;11.102;2022-12-11T07:02:45;37.83;;;20.97;;
13660;SDS011;6903;49.480;11.102;2022-12-11T07:05:10;32.60;;;18.03;;
13660;SDS011;6903;49.480;11.102;2022-12-11T07:07:35;34.13;;;18.83;;
13660;SDS011;6903;49.480;11.102;2022-12-11T07:10:01;38.53;;;20.63;;
13660;SDS011;6903;49.480;11.102;2022-12-11T07:12:26;35.80;;;20.73;;
13660;SDS011;6903;49.480;11.102;2022-12-11T07:14:51;37.90;;;21.87;;
13660;SDS011;6903;49.480;11.102;2022-12-11T07:17:17;40.97;;;22.80;;
13660;SDS011;6903;49.480;11.102;2022-12-11T07:19:42;38.83;;;19.90;;
13660;SDS011;6903;49.480;11.102;2022-12-11T07:22:07;37.57;;;20.57;;
13660;SDS011;6903;49.480;11.102;2022-12-11T07:24:33;39.73;;;23.10;;
13660;SDS011;6903;49.480;11.102;2022-12-11T07:26:58;38.93;;;22.53;;
13660;SDS011;6903;49.480;11.102;2022-12-11T07:29:23;45.33;;;23.67;;
13660;SDS011;6903;49.480;11.102;2022-12-11T07:31:49;38.30;;;22.00;;
13660;SDS011;6903;49.480;11.102;2022-12-11T07:34:14;38.63;;;21.47;;
13660;SDS011;6903;49.480;11.102;2022-12-11T07:36:40;38.93;;;21.33;;
13660;SDS011;6903;49.480;11.102;2022-12-11T07:39:05;37.27;;;21.67;;
13660;SDS011;6903;49.480;11.102;2022-12-11T07:41:31;37.00;;;22.07;;
13660;SDS011;6903;49.480;11.102;2022-12-11T07:43:57;35.47;;;19.40;;
13660;SDS011;6903;49.480;11.102;2022-12-11T07:46:25;37.23;;;20.93;;
13660;SDS011;6903;49.480;11.102;2022-12-11T07:48:51;36.83;;;21.57;;
13660;SDS011;6903;49.480;11.102;2022-12-11T07:51:21;35.43;;;20.87;;
13660;SDS011;6903;49.480;11.102;2022-12-11T07:53:52;36.43;;;21.93;;
13660;SDS011;6903;49.480;11.102;2022-12-11T07:56:20;33.87;;;20.73;;
13660;SDS011;6903;49.480;11.102;2022-12-11T07:58:46;32.20;;;19.97;;
13660;SDS011;6903;49.480;11.102;2022-12-11T08:01:19;25.50;;;17.57;;
13660;SDS011;6903;49.480;11.102;2022-12-11T08:03:46;28.50;;;17.10;;
13660;SDS011;6903;49.480;11.102;2022-12-11T08:06:11;26.77;;;17.50;;
13660;SDS011;6903;49.480;11.102;2022-12-11T08:08:37;22.77;;;15.10;;
13660;SDS011;6903;49.480;11.102;2022-12-11T08:11:05;23.10;;;15.07;;
13660;SDS011;6903;49.480;11.102;2022-12-11T08:13:32;23.17;;;14.93;;
13660;SDS011;6903;49.480;11.102;2022-12-11T08:15:58;20.57;;;14.87;;
13660;SDS011;6903;49.480;11.102;2022-12-11T08:18:26;21.80;;;14.73;;
13660;SDS011;6903;49.480;11.102;2022-12-11T08:20:52;19.17;;;13.53;;
13660;SDS011;6903;49.480;11.102;2022-12-11T08:23:17;22.77;;;15.10;;
13660;SDS011;6903;49.480;11.102;2022-12-11T08:25:42;22.17;;;15.03;;
13660;SDS011;6903;49.480;11.102;2022-12-11T08:28:08;21.30;;;14.67;;
13660;SDS011;6903;49.480;11.102;2022-12-11T08:30:33;21.90;;;13.87;;
13660;SDS011;6903;49.480;11.102;2022-12-11T08:32:59;21.27;;;14.40;;
13660;SDS011;6903;49.480;11.102;2022-12-11T08:35:25;23.50;;;15.43;;
13660;SDS011;6903;49.480;11.102;2022-12-11T08:37:50;20.97;;;15.37;;
13660;SDS011;6903;49.480;11.102;2022-12-11T08:40:16;22.80;;;15.10;;
13660;SDS011;6903;49.480;11.102;2022-12-11T08:42:41;22.33;;;14.50;;
13660;SDS011;6903;49.480;11.102;2022-12-11T08:45:07;32.13;;;15.43;;
13660;SDS011;6903;49.480;11.102;2022-12-11T08:47:33;24.07;;;15.40;;
13660;SDS011;6903;49.480;11.102;2022-12-11T08:49:58;20.37;;;14.20;;
13660;SDS011;6903;49.480;11.102;2022-12-11T08:52:23;21.37;;;14.67;;
13660;SDS011;6903;49.480;11.102;2022-12-11T08:54:49;22.23;;;14.03;;
13660;SDS011;6903;49.480;11.102;2022-12-11T08:57:14;20.27;;;14.17;;
13660;SDS011;6903;49.480;11.102;2022-12-11T08:59:39;21.70;;;14.70;;
13660;SDS011;6903;49.480;11.102;2022-12-11T09:02:05;18.60;;;13.27;;
13660;SDS011;6903;49.480;11.102;2022-12-11T09:04:30;22.60;;;14.93;;
13660;SDS011;6903;49.480;11.102;2022-12-11T09:06:56;21.30;;;14.03;;
13660;SDS011;6903;49.480;11.102;2022-12-11T09:09:21;22.23;;;14.10;;
13660;SDS011;6903;49.480;11.102;2022-12-11T09:11:46;25.57;;;14.20;;
13660;SDS011;6903;49.480;11.102;2022-12-11T09:14:12;19.03;;;13.70;;
13660;SDS011;6903;49.480;11.102;2022-12-11T09:16:38;17.60;;;13.90;;
13660;SDS011;6903;49.480;11.102;2022-12-11T09:19:05;20.77;;;14.23;;
13660;SDS011;6903;49.480;11.102;2022-12-11T09:21:32;19.23;;;13.53;;
13660;SDS011;6903;49.480;11.102;2022-12-11T09:23:58;21.13;;;13.90;;
13660;SDS011;6903;49.480;11.102;2022-12-11T09:26:25;20.40;;;13.50;;
13660;SDS011;6903;49.480;11.102;2022-12-11T09:28:52;19.20;;;13.23;;
13660;SDS011;6903;49.480;11.102;2022-12-11T09:31:25;22.93;;;12.97;;
13660;SDS011;6903;49.480;11.102;2022-12-11T09:33:59;23.87;;;14.13;;
13660;SDS011;6903;49.480;11.102;2022-12-11T09:36:26;22.63;;;14.63;;
13660;SDS011;6903;49.480;11.102;2022-12-11T09:38:51;22.30;;;13.47;;
13660;SDS011;6903;49.480;11.102;2022-12-11T09:43:47;19.23;;;13.50;;
13660;SDS011;6903;49.480;11.102;2022-12-11T09:46:18;20.67;;;14.03;;
13660;SDS011;6903;49.480;11.102;2022-12-11T09:48:44;21.93;;;14.47;;
13660;SDS011;6903;49.480;11.102;2022-12-11T09:53:55;22.70;;;14.20;;
13660;SDS011;6903;49.480;11.102;2022-12-11T09:59:21;21.77;;;15.00;;
13660;SDS011;6903;49.480;11.102;2022-12-11T10:10:21;19.57;;;13.53;;
13660;SDS011;6903;49.480;11.102;2022-12-11T10:13:36;19.77;;;13.57;;
13660;SDS011;6903;49.480;11.102;2022-12-11T10:15:58;22.63;;;14.17;;
13660;SDS011;6903;49.480;11.102;2022-12-11T10:18:33;27.30;;;14.17;;
13660;SDS011;6903;49.480;11.102;2022-12-11T10:21:00;24.40;;;13.40;;
13660;SDS011;6903;49.480;11.102;2022-12-11T10:23:42;17.73;;;13.10;;
13660;SDS011;6903;49.480;11.102;2022-12-11T10:26:18;20.13;;;13.13;;
13660;SDS011;6903;49.480;11.102;2022-12-11T10:28:45;25.13;;;12.63;;
13660;SDS011;6903;49.480;11.102;2022-12-11T10:31:16;20.50;;;12.80;;
13660;SDS011;6903;49.480;11.102;2022-12-11T10:34:10;18.70;;;12.00;;
13660;SDS011;6903;49.480;11.102;2022-12-11T10:36:39;19.00;;;12.17;;
13660;SDS011;6903;49.480;11.102;2022-12-11T10:39:24;17.27;;;10.53;;
13660;SDS011;6903;49.480;11.102;2022-12-11T10:41:50;18.80;;;10.83;;
13660;SDS011;6903;49.480;11.102;2022-12-11T10:44:18;20.33;;;11.77;;
13660;SDS011;6903;49.480;11.102;2022-12-11T10:46:47;20.23;;;10.63;;
13660;SDS011;6903;49.480;11.102;2022-12-11T10:49:26;25.20;;;12.40;;
13660;SDS011;6903;49.480;11.102;2022-12-11T10:51:53;19.40;;;10.83;;
13660;SDS011;6903;49.480;11.102;2022-12-11T10:56:48;28.23;;;11.43;;
13660;SDS011;6903;49.480;11.102;2022-12-11T10:59:20;13.50;;;9.27;;
13660;SDS011;6903;49.480;11.102;2022-12-11T11:01:48;17.57;;;9.80;;
13660;SDS011;6903;49.480;11.102;2022-12-11T11:04:15;18.90;;;10.97;;
13660;SDS011;6903;49.480;11.102;2022-12-11T11:06:47;15.68;;;11.85;;
13660;SDS011;6903;49.480;11.102;2022-12-11T11:09:27;14.97;;;10.80;;
13660;SDS011;6903;49.480;11.102;2022-12-11T11:11:55;14.87;;;10.53;;
13660;SDS011;6903;49.480;11.102;2022-12-11T11:14:21;15.63;;;9.80;;
13660;SDS011;6903;49.480;11.102;2022-12-11T11:16:50;14.30;;;10.03;;
13660;SDS011;6903;49.480;11.102;2022-12-11T11:21:55;17.03;;;10.60;;
13660;SDS011;6903;49.480;11.102;2022-12-11T11:24:25;17.50;;;11.13;;
13660;SDS011;6903;49.480;11.102;2022-12-11T11:26:53;15.33;;;10.90;;
13660;SDS011;6903;49.480;11.102;2022-12-11T11:29:24;15.17;;;10.27;;
13660;SDS011;6903;49.480;11.102;2022-12-11T11:31:54;15.83;;;10.97;;
13660;SDS011;6903;49.480;11.102;2022-12-11T11:34:20;19.13;;;11.80;;
13660;SDS011;6903;49.480;11.102;2022-12-11T11:36:54;17.60;;;11.93;;
13660;SDS011;6903;49.480;11.102;2022-12-11T11:39:32;18.70;;;12.17;;
13660;SDS011;6903;49.480;11.102;2022-12-11T11:42:09;16.00;;;11.60;;
13660;SDS011;6903;49.480;11.102;2022-12-11T11:45:04;19.53;;;12.07;;
13660;SDS011;6903;49.480;11.102;2022-12-11T11:47:39;19.87;;;11.90;;
13660;SDS011;6903;49.480;11.102;2022-12-11T11:50:10;22.90;;;12.93;;
13660;SDS011;6903;49.480;11.102;2022-12-11T11:52:54;21.50;;;12.63;;
13660;SDS011;6903;49.480;11.102;2022-12-11T11:56:26;19.33;;;11.53;;
13660;SDS011;6903;49.480;11.102;2022-12-11T11:58:26;17.33;;;9.90;;
13660;SDS011;6903;49.480;11.102;2022-12-11T12:01:00;15.73;;;9.40;;
13660;SDS011;6903;49.480;11.102;2022-12-11T12:03:26;18.07;;;9.43;;
13660;SDS011;6903;49.480;11.102;2022-12-11T12:05:59;13.73;;;9.20;;
13660;SDS011;6903;49.480;11.102;2022-12-11T12:13:54;20.23;;;11.57;;
13660;SDS011;6903;49.480;11.102;2022-12-11T12:16:41;17.13;;;10.07;;
13660;SDS011;6903;49.480;11.102;2022-12-11T12:25:23;15.60;;;9.73;;
13660;SDS011;6903;49.480;11.102;2022-12-11T12:30:23;14.80;;;10.97;;
13660;SDS011;6903;49.480;11.102;2022-12-11T12:32:57;16.07;;;10.80;;
13660;SDS011;6903;49.480;11.102;2022-12-11T12:36:01;14.00;;;9.80;;
13660;SDS011;6903;49.480;11.102;2022-12-11T12:48:58;14.93;;;9.93;;
13660;SDS011;6903;49.480;11.102;2022-12-11T12:51:26;19.33;;;11.70;;
13660;SDS011;6903;49.480;11.102;2022-12-11T12:53:59;17.03;;;10.13;;
13660;SDS011;6903;49.480;11.102;2022-12-11T12:56:27;15.67;;;9.63;;
13660;SDS011;6903;49.480;11.102;2022-12-11T12:58:55;26.33;;;12.60;;
13660;SDS011;6903;49.480;11.102;2022-12-11T13:01:22;18.87;;;11.87;;
13660;SDS011;6903;49.480;11.102;2022-12-11T13:03:53;17.13;;;10.00;;
13660;SDS011;6903;49.480;11.102;2022-12-11T13:09:21;13.07;;;8.93;;
13660;SDS011;6903;49.480;11.102;2022-12-11T13:11:49;17.53;;;9.83;;
13660;SDS011;6903;49.480;11.102;2022-12-11T13:16:44;12.93;;;8.30;;
13660;SDS011;6903;49.480;11.102;2022-12-11T13:19:15;14.00;;;9.80;;
13660;SDS011;6903;49.480;11.102;2022-12-11T13:27:23;18.30;;;10.17;;
13660;SDS011;6903;49.480;11.102;2022-12-11T13:30:02;16.77;;;10.47;;
13660;SDS011;6903;49.480;11.102;2022-12-11T13:32:30;14.83;;;9.67;;
13660;SDS011;6903;49.480;11.102;2022-12-11T13:34:57;13.37;;;8.53;;
13660;SDS011;6903;49.480;11.102;2022-12-11T13:40:02;11.80;;;8.20;;
13660;SDS011;6903;49.480;11.102;2022-12-11T13:42:33;12.20;;;7.57;;
13660;SDS011;6903;49.480;11.102;2022-12-11T13:45:02;11.40;;;7.57;;
13660;SDS011;6903;49.480;11.102;2022-12-11T13:47:29;12.20;;;7.27;;
13660;SDS011;6903;49.480;11.102;2022-12-11T13:52:51;12.07;;;7.70;;
13660;SDS011;6903;49.480;11.102;2022-12-11T13:55:25;12.90;;;8.40;;
13660;SDS011;6903;49.480;11.102;2022-12-11T13:57:55;11.37;;;7.60;;
13660;SDS011;6903;49.480;11.102;2022-12-11T14:00:23;10.43;;;7.77;;
13660;SDS011;6903;49.480;11.102;2022-12-11T14:02:50;13.83;;;7.63;;
13660;SDS011;6903;49.480;11.102;2022-12-11T14:05:18;10.47;;;7.07;;
13660;SDS011;6903;49.480;11.102;2022-12-11T14:07:50;10.83;;;7.37;;
13660;SDS011;6903;49.480;11.102;2022-12-11T14:10:20;10.33;;;7.13;;
13660;SDS011;6903;49.480;11.102;2022-12-11T14:15:23;8.87;;;6.43;;
13660;SDS011;6903;49.480;11.102;2022-12-11T14:17:50;10.60;;;7.33;;
13660;SDS011;6903;49.480;11.102;2022-12-11T14:20:17;10.20;;;6.83;;
13660;SDS011;6903;49.480;11.102;2022-12-11T14:22:45;11.80;;;7.40;;
13660;SDS011;6903;49.480;11.102;2022-12-11T14:25:24;12.43;;;7.73;;
13660;SDS011;6903;49.480;11.102;2022-12-11T14:27:52;11.30;;;7.37;;
13660;SDS011;6903;49.480;11.102;2022-12-11T14:30:20;11.70;;;7.90;;
13660;SDS011;6903;49.480;11.102;2022-12-11T14:32:48;10.27;;;7.00;;
13660;SDS011;6903;49.480;11.102;2022-12-11T14:35:22;11.30;;;7.20;;
13660;SDS011;6903;49.480;11.102;2022-12-11T14:37:47;11.77;;;7.90;;
13660;SDS011;6903;49.480;11.102;2022-12-11T14:40:15;10.57;;;7.10;;
13660;SDS011;6903;49.480;11.102;2022-12-11T14:42:43;10.13;;;7.67;;
13660;SDS011;6903;49.480;11.102;2022-12-11T14:45:33;12.47;;;7.83;;
13660;SDS011;6903;49.480;11.102;2022-12-11T14:48:04;12.10;;;7.83;;
13660;SDS011;6903;49.480;11.102;2022-12-11T14:50:40;12.50;;;8.23;;
13660;SDS011;6903;49.480;11.102;2022-12-11T14:53:16;11.47;;;7.80;;
13660;SDS011;6903;49.480;11.102;2022-12-11T14:55:47;11.80;;;7.53;;
13660;SDS011;6903;49.480;11.102;2022-12-11T14:58:15;13.87;;;8.47;;
13660;SDS011;6903;49.480;11.102;2022-12-11T15:00:55;11.27;;;7.90;;
13660;SDS011;6903;49.480;11.102;2022-12-11T15:03:22;12.40;;;8.07;;
13660;SDS011;6903;49.480;11.102;2022-12-11T15:05:52;12.13;;;7.40;;
13660;SDS011;6903;49.480;11.102;2022-12-11T15:08:20;10.40;;;7.37;;
13660;SDS011;6903;49.480;11.102;2022-12-11T15:13:46;10.70;;;6.83;;
13660;SDS011;6903;49.480;11.102;2022-12-11T15:16:22;12.30;;;8.00;;
13660;SDS011;6903;49.480;11.102;2022-12-11T15:18:49;11.93;;;7.97;;
13660;SDS011;6903;49.480;11.102;2022-12-11T15:21:16;14.00;;;7.87;;
13660;SDS011;6903;49.480;11.102;2022-12-11T15:23:48;12.03;;;8.33;;
13660;SDS011;6903;49.480;11.102;2022-12-11T15:26:16;12.60;;;8.57;;
13660;SDS011;6903;49.480;11.102;2022-12-11T15:28:42;11.83;;;8.20;;
13660;SDS011;6903;49.480;11.102;2022-12-11T15:31:25;12.60;;;8.60;;
13660;SDS011;6903;49.480;11.102;2022-12-11T15:33:51;12.73;;;7.80;;
13660;SDS011;6903;49.480;11.102;2022-12-11T15:36:20;13.67;;;8.93;;
13660;SDS011;6903;49.480;11.102;2022-12-11T15:38:49;11.87;;;8.40;;
13660;SDS011;6903;49.480;11.102;2022-12-11T15:41:15;13.50;;;8.10;;
13660;SDS011;6903;49.480;11.102;2022-12-11T15:43:44;13.63;;;8.67;;
13660;SDS011;6903;49.480;11.102;2022-12-11T15:46:11;13.73;;;8.73;;
13660;SDS011;6903;49.480;11.102;2022-12-11T15:48:36;14.30;;;9.40;;
13660;SDS011;6903;49.480;11.102;2022-12-11T15:51:01;13.13;;;8.57;;
13660;SDS011;6903;49.480;11.102;2022-12-11T15:53:27;14.87;;;9.17;;
13660;SDS011;6903;49.480;11.102;2022-12-11T15:55:53;14.83;;;8.90;;
13660;SDS011;6903;49.480;11.102;2022-12-11T15:58:20;16.57;;;10.30;;
13660;SDS011;6903;49.480;11.102;2022-12-11T16:00:48;15.90;;;9.87;;